Time;durP1;ratioP1;P1;durP2;ratioP2;P2;SDS_P1;SDS_P2;PMS_P1;PMS_P2;Temp;Humidity;BMP_temperature;BMP_pressure;BME280_temperature;BME280_humidity;BME280_pressure;Samples;Min_cycle;Max_cycle;Signal;HPM_P1;HPM_P2
2022/08/27 00:31:59;;;;;;;1.85;0.77;;;17.30;99.90;;;;;;6254417;22;20028;-94
2022/08/27 06:35:06;;;;;;;3.28;1.10;;;17.10;99.90;;;;;;6249762;22;20024;-93
2022/08/27 06:58:21;;;;;;;5.05;3.65;;;17.50;99.90;;;;;;6253885;22;20028;-93
2022/08/27 07:38:28;;;;;;;3.78;0.90;;;18.90;99.90;;;;;;6251337;22;20020;-91
2022/08/27 07:41:04;;;;;;;2.90;0.60;;;18.90;99.90;;;;;;6250516;23;20066;-91
2022/08/27 08:12:05;;;;;;;1.40;0.60;;;18.60;99.90;;;;;;6309352;22;20027;-92
2022/08/27 08:27:31;;;;;;;5.63;3.55;;;18.60;99.90;;;;;;6257568;23;20031;-92
2022/08/27 08:30:25;;;;;;;3.90;0.95;;;18.60;99.90;;;;;;6204445;23;20068;-91
2022/08/27 08:33:08;;;;;;;4.65;0.47;;;18.70;99.90;;;;;;6193943;23;20032;-92
2022/08/27 08:35:49;;;;;;;1.20;0.40;;;18.70;99.90;;;;;;6144329;23;20525;-96
2022/08/27 09:45:35;;;;;;;4.65;1.20;;;19.10;99.90;;;;;;6244303;22;20121;-93
2022/08/27 10:21:10;;;;;;;1.75;0.50;;;19.30;99.90;;;;;;6244650;22;20106;-92
2022/08/27 10:24:14;;;;;;;0.93;0.30;;;19.30;99.90;;;;;;6248192;23;20031;-91
2022/08/27 10:45:34;;;;;;;1.40;0.57;;;19.60;99.90;;;;;;6248773;22;20038;-90
2022/08/27 10:48:27;;;;;;;1.70;0.63;;;19.50;99.90;;;;;;6223925;23;20020;-90
2022/08/27 10:51:13;;;;;;;2.75;0.68;;;19.50;99.90;;;;;;6201263;23;20016;-91
2022/08/27 11:09:53;;;;;;;4.53;1.13;;;19.80;99.90;;;;;;6246963;22;20028;-89
2022/08/27 11:28:06;;;;;;;1.08;0.57;;;20.70;99.10;;;;;;6255446;22;20027;-91
2022/08/27 11:30:41;;;;;;;2.67;0.30;;;20.70;99.10;;;;;;6205448;23;20042;-96
2022/08/27 11:33:31;;;;;;;0.63;0.20;;;20.60;98.90;;;;;;6255108;23;20449;-92
2022/08/27 11:36:13;;;;;;;2.03;0.20;;;20.70;99.30;;;;;;6227828;23;20020;-90
2022/08/27 11:39:20;;;;;;;2.28;0.40;;;20.90;99.00;;;;;;6232587;23;20020;-90
2022/08/27 11:42:34;;;;;;;1.50;0.47;;;20.90;99.00;;;;;;6235629;23;20047;-95
2022/08/27 11:45:09;;;;;;;1.35;0.30;;;21.00;99.20;;;;;;6202166;23;20020;-96
2022/08/27 13:46:20;;;;;;;3.53;0.70;;;21.40;93.40;;;;;;6253878;22;20008;-96
2022/08/27 14:24:21;;;;;;;0.45;0.25;;;20.30;95.60;;;;;;6260522;22;20028;-91
2022/08/27 14:29:31;;;;;;;4.83;0.60;;;20.20;95.80;;;;;;6255735;22;20039;-96
2022/08/27 21:33:42;;;;;;;3.75;0.80;;;16.50;99.90;;;;;;6263137;22;20031;-91
2022/08/27 21:36:07;;;;;;;2.53;1.00;;;16.50;99.90;;;;;;6220233;23;20016;-89
2022/08/27 21:38:33;;;;;;;3.08;0.80;;;16.50;99.90;;;;;;6193557;23;20367;-91
2022/08/27 21:40:59;;;;;;;3.88;1.00;;;16.50;99.90;;;;;;6219920;23;20051;-90
2022/08/27 21:43:25;;;;;;;3.00;0.93;;;16.50;99.90;;;;;;6220066;23;20022;-89
2022/08/27 21:45:55;;;;;;;2.90;0.80;;;16.40;99.90;;;;;;6220570;23;20099;-92
2022/08/27 21:48:22;;;;;;;2.95;0.70;;;16.40;99.90;;;;;;6220724;23;20110;-92
2022/08/27 21:50:48;;;;;;;;;;;16.40;99.90;;;;;;6221064;23;20024;-92
2022/08/27 21:53:14;;;;;;;4.28;0.70;;;16.30;99.90;;;;;;6220485;23;19942;-91
2022/08/27 21:55:40;;;;;;;3.60;0.82;;;16.30;99.90;;;;;;6220492;23;20020;-91
2022/08/27 21:58:09;;;;;;;1.77;0.80;;;16.30;99.90;;;;;;6195392;23;20016;-92
2022/08/27 22:00:48;;;;;;;3.92;1.17;;;16.30;99.90;;;;;;6196155;23;20099;-92
2022/08/27 22:03:16;;;;;;;2.45;0.80;;;16.20;99.90;;;;;;6220473;23;20027;-92
2022/08/27 22:05:44;;;;;;;2.15;0.80;;;16.20;99.90;;;;;;6220576;23;20052;-92
2022/08/27 22:08:11;;;;;;;2.53;0.60;;;16.20;99.90;;;;;;6220802;23;20027;-92
2022/08/27 22:10:39;;;;;;;3.72;0.80;;;16.20;99.90;;;;;;6220521;23;20103;-92
2022/08/27 22:13:05;;;;;;;4.07;0.70;;;16.20;99.90;;;;;;6220497;23;20090;-92
2022/08/27 22:15:34;;;;;;;2.40;0.70;;;16.10;99.90;;;;;;6220475;23;20016;-94
2022/08/27 22:18:00;;;;;;;2.35;0.80;;;16.10;99.90;;;;;;6220249;23;20036;-92
2022/08/27 22:24:02;;;;;;;2.25;0.70;;;16.00;99.90;;;;;;6203280;23;20024;-92
2022/08/27 22:32:44;;;;;;;3.97;1.08;;;15.80;99.90;;;;;;6241136;22;20024;-90
2022/08/27 22:35:22;;;;;;;3.25;0.90;;;15.80;99.90;;;;;;6220054;23;20020;-89
2022/08/27 22:37:48;;;;;;;3.85;1.05;;;15.80;99.90;;;;;;6194604;23;20086;-90
2022/08/27 22:40:18;;;;;;;2.33;0.70;;;15.70;99.90;;;;;;6194721;23;20441;-90
2022/08/27 22:43:24;;;;;;;2.72;0.80;;;15.70;99.90;;;;;;6195141;23;20020;-90
2022/08/27 22:46:14;;;;;;;3.45;0.93;;;15.70;99.90;;;;;;6195090;23;20024;-89
2022/08/27 22:48:40;;;;;;;3.90;1.30;;;15.60;99.90;;;;;;6194601;23;20020;-89
2022/08/27 22:51:06;;;;;;;3.47;0.77;;;15.60;99.90;;;;;;6194624;23;20024;-91
2022/08/27 22:53:32;;;;;;;2.67;0.85;;;15.60;99.90;;;;;;6145345;23;20059;-91
2022/08/27 22:55:58;;;;;;;3.80;1.63;;;15.60;99.90;;;;;;6219710;23;20020;-87
2022/08/27 22:58:36;;;;;;;2.20;0.98;;;15.60;99.90;;;;;;6220017;23;20397;-92
2022/08/27 23:24:20;;;;;;;2.83;1.02;;;15.50;99.90;;;;;;6245804;22;20024;-90
2022/08/27 23:29:36;;;;;;;3.20;0.95;;;15.40;99.90;;;;;;6198552;23;20082;-91
2022/08/27 23:32:13;;;;;;;;;;;;;;;;;;;;;
2022/08/27 23:34:44;;;;;;;3.15;1.15;;;15.40;99.90;;;;;;6218546;23;20030;-91
2022/08/27 23:37:17;;;;;;;4.40;0.82;;;15.40;99.90;;;;;;6194737;23;20027;-91
2022/08/27 23:40:08;;;;;;;4.32;1.10;;;15.30;99.90;;;;;;6194824;23;20334;-91
